sensor_id;sensor_type;location;lat;lon;timestamp;P1;durP1;ratioP1;P2;durP2;ratioP2
17943;SDS011;9097;47.028;15.444;2023-08-06T00:00:14;0.15;;;0.15;;
17943;SDS011;9097;47.028;15.444;2023-08-06T00:03:17;0.30;;;0.30;;
17943;SDS011;9097;47.028;15.444;2023-08-06T00:06:19;0.30;;;0.30;;
17943;SDS011;9097;47.028;15.444;2023-08-06T00:09:22;0.30;;;0.30;;
17943;SDS011;9097;47.028;15.444;2023-08-06T00:12:24;1.13;;;0.55;;
17943;SDS011;9097;47.028;15.444;2023-08-06T00:15:29;0.43;;;0.20;;
17943;SDS011;9097;47.028;15.444;2023-08-06T00:18:31;1.00;;;0.20;;
17943;SDS011;9097;47.028;15.444;2023-08-06T00:21:33;0.43;;;0.40;;
17943;SDS011;9097;47.028;15.444;2023-08-06T00:24:36;0.20;;;0.20;;
17943;SDS011;9097;47.028;15.444;2023-08-06T00:27:38;1.08;;;0.50;;
17943;SDS011;9097;47.028;15.444;2023-08-06T00:30:42;0.47;;;0.47;;
17943;SDS011;9097;47.028;15.444;2023-08-06T00:33:45;0.50;;;0.38;;
17943;SDS011;9097;47.028;15.444;2023-08-06T00:36:47;1.48;;;0.77;;
17943;SDS011;9097;47.028;15.444;2023-08-06T00:39:50;1.05;;;0.22;;
17943;SDS011;9097;47.028;15.444;2023-08-06T00:42:52;0.35;;;0.35;;
17943;SDS011;9097;47.028;15.444;2023-08-06T00:45:56;0.50;;;0.30;;
17943;SDS011;9097;47.028;15.444;2023-08-06T00:48:59;0.43;;;0.43;;
17943;SDS011;9097;47.028;15.444;2023-08-06T00:52:02;0.82;;;0.45;;
17943;SDS011;9097;47.028;15.444;2023-08-06T00:55:06;0.45;;;0.35;;
17943;SDS011;9097;47.028;15.444;2023-08-06T00:58:09;0.50;;;0.50;;
17943;SDS011;9097;47.028;15.444;2023-08-06T01:01:13;0.20;;;0.20;;
17943;SDS011;9097;47.028;15.444;2023-08-06T01:04:16;0.63;;;0.30;;
17943;SDS011;9097;47.028;15.444;2023-08-06T01:07:21;0.68;;;0.55;;
17943;SDS011;9097;47.028;15.444;2023-08-06T01:10:30;0.40;;;0.30;;
17943;SDS011;9097;47.028;15.444;2023-08-06T01:13:37;0.68;;;0.60;;
17943;SDS011;9097;47.028;15.444;2023-08-06T01:16:46;1.27;;;0.32;;
17943;SDS011;9097;47.028;15.444;2023-08-06T01:19:49;0.90;;;0.50;;
17943;SDS011;9097;47.028;15.444;2023-08-06T01:22:53;0.40;;;0.40;;
17943;SDS011;9097;47.028;15.444;2023-08-06T01:25:56;1.13;;;0.50;;
17943;SDS011;9097;47.028;15.444;2023-08-06T01:29:04;0.30;;;0.30;;
17943;SDS011;9097;47.028;15.444;2023-08-06T01:32:08;0.55;;;0.40;;
17943;SDS011;9097;47.028;15.444;2023-08-06T01:35:14;0.80;;;0.50;;
17943;SDS011;9097;47.028;15.444;2023-08-06T01:38:19;0.70;;;0.70;;
17943;SDS011;9097;47.028;15.444;2023-08-06T01:41:22;0.28;;;0.28;;
17943;SDS011;9097;47.028;15.444;2023-08-06T01:44:24;0.98;;;0.50;;
17943;SDS011;9097;47.028;15.444;2023-08-06T01:47:27;0.40;;;0.30;;
17943;SDS011;9097;47.028;15.444;2023-08-06T01:50:30;0.55;;;0.32;;
17943;SDS011;9097;47.028;15.444;2023-08-06T01:53:34;0.65;;;0.35;;
17943;SDS011;9097;47.028;15.444;2023-08-06T01:56:36;0.80;;;0.47;;
17943;SDS011;9097;47.028;15.444;2023-08-06T01:59:39;0.35;;;0.28;;
17943;SDS011;9097;47.028;15.444;2023-08-06T02:02:41;1.13;;;0.70;;
17943;SDS011;9097;47.028;15.444;2023-08-06T02:05:44;0.60;;;0.40;;
17943;SDS011;9097;47.028;15.444;2023-08-06T02:08:48;0.50;;;0.50;;
17943;SDS011;9097;47.028;15.444;2023-08-06T02:11:50;0.32;;;0.32;;
17943;SDS011;9097;47.028;15.444;2023-08-06T02:14:53;0.40;;;0.40;;
17943;SDS011;9097;47.028;15.444;2023-08-06T02:17:55;0.57;;;0.57;;
17943;SDS011;9097;47.028;15.444;2023-08-06T02:20:58;1.00;;;0.47;;
17943;SDS011;9097;47.028;15.444;2023-08-06T02:24:02;0.47;;;0.47;;
17943;SDS011;9097;47.028;15.444;2023-08-06T02:27:05;0.30;;;0.25;;
17943;SDS011;9097;47.028;15.444;2023-08-06T02:30:08;0.40;;;0.40;;
17943;SDS011;9097;47.028;15.444;2023-08-06T02:33:10;0.30;;;0.30;;
17943;SDS011;9097;47.028;15.444;2023-08-06T02:36:13;0.50;;;0.50;;
17943;SDS011;9097;47.028;15.444;2023-08-06T02:39:17;0.77;;;0.40;;
17943;SDS011;9097;47.028;15.444;2023-08-06T02:42:19;0.82;;;0.32;;
17943;SDS011;9097;47.028;15.444;2023-08-06T02:45:22;1.15;;;0.60;;
17943;SDS011;9097;47.028;15.444;2023-08-06T02:48:24;0.63;;;0.60;;
17943;SDS011;9097;47.028;15.444;2023-08-06T02:51:26;0.30;;;0.30;;
17943;SDS011;9097;47.028;15.444;2023-08-06T02:54:31;0.60;;;0.55;;
17943;SDS011;9097;47.028;15.444;2023-08-06T02:57:33;1.83;;;1.08;;
17943;SDS011;9097;47.028;15.444;2023-08-06T03:00:36;0.68;;;0.63;;
17943;SDS011;9097;47.028;15.444;2023-08-06T03:03:38;1.10;;;0.60;;
17943;SDS011;9097;47.028;15.444;2023-08-06T03:06:41;1.13;;;0.52;;
17943;SDS011;9097;47.028;15.444;2023-08-06T03:09:44;0.55;;;0.55;;
17943;SDS011;9097;47.028;15.444;2023-08-06T03:12:47;0.15;;;0.15;;
17943;SDS011;9097;47.028;15.444;2023-08-06T03:15:53;0.50;;;0.40;;
17943;SDS011;9097;47.028;15.444;2023-08-06T03:18:56;1.05;;;0.95;;
17943;SDS011;9097;47.028;15.444;2023-08-06T03:21:59;1.02;;;0.68;;
17943;SDS011;9097;47.028;15.444;2023-08-06T03:25:03;0.52;;;0.52;;
17943;SDS011;9097;47.028;15.444;2023-08-06T03:28:06;0.40;;;0.40;;
17943;SDS011;9097;47.028;15.444;2023-08-06T03:31:08;0.57;;;0.30;;
17943;SDS011;9097;47.028;15.444;2023-08-06T03:34:11;0.38;;;0.38;;
17943;SDS011;9097;47.028;15.444;2023-08-06T03:37:13;0.30;;;0.30;;
17943;SDS011;9097;47.028;15.444;2023-08-06T03:40:17;0.45;;;0.30;;
17943;SDS011;9097;47.028;15.444;2023-08-06T03:43:20;2.05;;;0.43;;
17943;SDS011;9097;47.028;15.444;2023-08-06T03:46:22;0.50;;;0.50;;
17943;SDS011;9097;47.028;15.444;2023-08-06T03:49:25;0.73;;;0.50;;
17943;SDS011;9097;47.028;15.444;2023-08-06T03:52:28;0.32;;;0.25;;
17943;SDS011;9097;47.028;15.444;2023-08-06T03:55:32;0.73;;;0.70;;
17943;SDS011;9097;47.028;15.444;2023-08-06T03:58:35;0.35;;;0.35;;
17943;SDS011;9097;47.028;15.444;2023-08-06T04:01:37;1.02;;;0.50;;
17943;SDS011;9097;47.028;15.444;2023-08-06T04:04:40;0.90;;;0.68;;
17943;SDS011;9097;47.028;15.444;2023-08-06T04:07:42;0.73;;;0.52;;
17943;SDS011;9097;47.028;15.444;2023-08-06T04:10:48;0.32;;;0.30;;
17943;SDS011;9097;47.028;15.444;2023-08-06T04:13:51;0.68;;;0.63;;
17943;SDS011;9097;47.028;15.444;2023-08-06T04:16:54;1.42;;;0.55;;
17943;SDS011;9097;47.028;15.444;2023-08-06T04:19:57;1.13;;;0.95;;
17943;SDS011;9097;47.028;15.444;2023-08-06T04:23:01;0.68;;;0.68;;
17943;SDS011;9097;47.028;15.444;2023-08-06T04:26:09;1.17;;;1.00;;
17943;SDS011;9097;47.028;15.444;2023-08-06T04:29:12;1.08;;;0.98;;
17943;SDS011;9097;47.028;15.444;2023-08-06T04:32:14;0.65;;;0.65;;
17943;SDS011;9097;47.028;15.444;2023-08-06T04:35:17;0.70;;;0.60;;
17943;SDS011;9097;47.028;15.444;2023-08-06T04:38:20;0.50;;;0.40;;
17943;SDS011;9097;47.028;15.444;2023-08-06T04:41:24;0.55;;;0.55;;
17943;SDS011;9097;47.028;15.444;2023-08-06T04:44:26;0.73;;;0.63;;
17943;SDS011;9097;47.028;15.444;2023-08-06T04:47:29;1.13;;;0.75;;
17943;SDS011;9097;47.028;15.444;2023-08-06T04:50:31;0.40;;;0.40;;
17943;SDS011;9097;47.028;15.444;2023-08-06T04:53:33;1.02;;;0.50;;
17943;SDS011;9097;47.028;15.444;2023-08-06T04:56:38;1.67;;;0.40;;
17943;SDS011;9097;47.028;15.444;2023-08-06T04:59:40;0.28;;;0.28;;
17943;SDS011;9097;47.028;15.444;2023-08-06T05:02:43;0.35;;;0.35;;
17943;SDS011;9097;47.028;15.444;2023-08-06T05:05:45;0.50;;;0.50;;
17943;SDS011;9097;47.028;15.444;2023-08-06T05:08:48;0.38;;;0.38;;
17943;SDS011;9097;47.028;15.444;2023-08-06T05:11:52;0.50;;;0.43;;
17943;SDS011;9097;47.028;15.444;2023-08-06T05:14:54;1.02;;;0.85;;
17943;SDS011;9097;47.028;15.444;2023-08-06T05:17:57;0.80;;;0.50;;
17943;SDS011;9097;47.028;15.444;2023-08-06T05:21:00;0.55;;;0.32;;
17943;SDS011;9097;47.028;15.444;2023-08-06T05:24:02;0.73;;;0.60;;
17943;SDS011;9097;47.028;15.444;2023-08-06T05:27:07;0.70;;;0.50;;
17943;SDS011;9097;47.028;15.444;2023-08-06T05:30:10;0.40;;;0.40;;
17943;SDS011;9097;47.028;15.444;2023-08-06T05:33:12;0.57;;;0.43;;
17943;SDS011;9097;47.028;15.444;2023-08-06T05:36:15;1.15;;;0.52;;
17943;SDS011;9097;47.028;15.444;2023-08-06T05:39:18;0.60;;;0.60;;
17943;SDS011;9097;47.028;15.444;2023-08-06T05:42:22;0.50;;;0.50;;
17943;SDS011;9097;47.028;15.444;2023-08-06T05:45:24;1.73;;;1.08;;
17943;SDS011;9097;47.028;15.444;2023-08-06T05:48:27;0.77;;;0.55;;
17943;SDS011;9097;47.028;15.444;2023-08-06T05:51:29;1.48;;;0.70;;
17943;SDS011;9097;47.028;15.444;2023-08-06T05:54:32;0.63;;;0.60;;
17943;SDS011;9097;47.028;15.444;2023-08-06T05:57:36;1.45;;;1.20;;
17943;SDS011;9097;47.028;15.444;2023-08-06T06:00:38;0.60;;;0.57;;
17943;SDS011;9097;47.028;15.444;2023-08-06T06:03:41;0.40;;;0.28;;
17943;SDS011;9097;47.028;15.444;2023-08-06T06:06:43;0.45;;;0.45;;
17943;SDS011;9097;47.028;15.444;2023-08-06T06:09:46;1.38;;;0.50;;
17943;SDS011;9097;47.028;15.444;2023-08-06T06:12:50;0.50;;;0.50;;
17943;SDS011;9097;47.028;15.444;2023-08-06T06:15:54;0.77;;;0.77;;
17943;SDS011;9097;47.028;15.444;2023-08-06T06:18:56;0.43;;;0.38;;
17943;SDS011;9097;47.028;15.444;2023-08-06T06:21:59;0.77;;;0.50;;
17943;SDS011;9097;47.028;15.444;2023-08-06T06:25:02;1.15;;;0.40;;
17943;SDS011;9097;47.028;15.444;2023-08-06T06:28:06;0.85;;;0.60;;
17943;SDS011;9097;47.028;15.444;2023-08-06T06:31:08;0.88;;;0.40;;
17943;SDS011;9097;47.028;15.444;2023-08-06T06:34:11;0.55;;;0.45;;
17943;SDS011;9097;47.028;15.444;2023-08-06T06:37:13;0.60;;;0.40;;
17943;SDS011;9097;47.028;15.444;2023-08-06T06:40:16;0.47;;;0.30;;
17943;SDS011;9097;47.028;15.444;2023-08-06T06:43:20;0.38;;;0.30;;
17943;SDS011;9097;47.028;15.444;2023-08-06T06:46:23;0.30;;;0.25;;
17943;SDS011;9097;47.028;15.444;2023-08-06T06:49:25;0.20;;;0.20;;
17943;SDS011;9097;47.028;15.444;2023-08-06T06:52:28;0.30;;;0.30;;
17943;SDS011;9097;47.028;15.444;2023-08-06T06:55:30;0.40;;;0.40;;
17943;SDS011;9097;47.028;15.444;2023-08-06T06:58:34;0.30;;;0.30;;
17943;SDS011;9097;47.028;15.444;2023-08-06T07:01:39;0.55;;;0.30;;
17943;SDS011;9097;47.028;15.444;2023-08-06T07:04:42;0.95;;;0.32;;
17943;SDS011;9097;47.028;15.444;2023-08-06T07:07:44;0.10;;;0.10;;
17943;SDS011;9097;47.028;15.444;2023-08-06T07:10:47;0.43;;;0.20;;
17943;SDS011;9097;47.028;15.444;2023-08-06T07:13:55;0.38;;;0.38;;
17943;SDS011;9097;47.028;15.444;2023-08-06T07:16:59;0.30;;;0.30;;
17943;SDS011;9097;47.028;15.444;2023-08-06T07:20:01;0.25;;;0.25;;
17943;SDS011;9097;47.028;15.444;2023-08-06T07:23:04;0.10;;;0.10;;
17943;SDS011;9097;47.028;15.444;2023-08-06T07:26:07;0.50;;;0.30;;
17943;SDS011;9097;47.028;15.444;2023-08-06T07:29:10;1.20;;;0.30;;
17943;SDS011;9097;47.028;15.444;2023-08-06T07:32:13;0.63;;;0.40;;
17943;SDS011;9097;47.028;15.444;2023-08-06T07:35:16;0.38;;;0.25;;
17943;SDS011;9097;47.028;15.444;2023-08-06T07:38:18;6.35;;;0.57;;
17943;SDS011;9097;47.028;15.444;2023-08-06T07:41:21;0.25;;;0.20;;
17943;SDS011;9097;47.028;15.444;2023-08-06T07:44:25;0.30;;;0.20;;
17943;SDS011;9097;47.028;15.444;2023-08-06T07:47:28;0.20;;;0.20;;
17943;SDS011;9097;47.028;15.444;2023-08-06T07:50:30;0.88;;;0.28;;
17943;SDS011;9097;47.028;15.444;2023-08-06T07:53:33;0.85;;;0.60;;
17943;SDS011;9097;47.028;15.444;2023-08-06T07:56:35;2.80;;;0.50;;
17943;SDS011;9097;47.028;15.444;2023-08-06T07:59:39;1.10;;;0.65;;
17943;SDS011;9097;47.028;15.444;2023-08-06T08:02:42;1.10;;;0.73;;
17943;SDS011;9097;47.028;15.444;2023-08-06T08:05:46;0.85;;;0.40;;
17943;SDS011;9097;47.028;15.444;2023-08-06T08:08:49;0.50;;;0.45;;
17943;SDS011;9097;47.028;15.444;2023-08-06T08:11:52;1.75;;;0.50;;
17943;SDS011;9097;47.028;15.444;2023-08-06T08:14:56;1.02;;;0.60;;
17943;SDS011;9097;47.028;15.444;2023-08-06T08:17:58;0.45;;;0.45;;
17943;SDS011;9097;47.028;15.444;2023-08-06T08:21:01;0.25;;;0.25;;
17943;SDS011;9097;47.028;15.444;2023-08-06T08:24:03;0.30;;;0.30;;
17943;SDS011;9097;47.028;15.444;2023-08-06T08:27:06;0.55;;;0.32;;
17943;SDS011;9097;47.028;15.444;2023-08-06T08:30:11;0.47;;;0.40;;
17943;SDS011;9097;47.028;15.444;2023-08-06T08:33:13;0.38;;;0.25;;
17943;SDS011;9097;47.028;15.444;2023-08-06T08:36:16;0.70;;;0.50;;
17943;SDS011;9097;47.028;15.444;2023-08-06T08:39:18;0.38;;;0.30;;
17943;SDS011;9097;47.028;15.444;2023-08-06T08:42:21;0.68;;;0.15;;
17943;SDS011;9097;47.028;15.444;2023-08-06T08:45:26;0.47;;;0.30;;
17943;SDS011;9097;47.028;15.444;2023-08-06T08:48:29;0.88;;;0.70;;
17943;SDS011;9097;47.028;15.444;2023-08-06T08:51:31;0.63;;;0.63;;
17943;SDS011;9097;47.028;15.444;2023-08-06T08:54:35;0.60;;;0.60;;
17943;SDS011;9097;47.028;15.444;2023-08-06T08:57:39;0.52;;;0.40;;
17943;SDS011;9097;47.028;15.444;2023-08-06T09:00:44;0.57;;;0.50;;
17943;SDS011;9097;47.028;15.444;2023-08-06T09:03:48;0.60;;;0.60;;
17943;SDS011;9097;47.028;15.444;2023-08-06T09:06:51;0.40;;;0.40;;
17943;SDS011;9097;47.028;15.444;2023-08-06T09:09:57;0.68;;;0.52;;
17943;SDS011;9097;47.028;15.444;2023-08-06T09:13:00;0.50;;;0.40;;
17943;SDS011;9097;47.028;15.444;2023-08-06T09:16:05;0.38;;;0.38;;
17943;SDS011;9097;47.028;15.444;2023-08-06T09:19:08;0.50;;;0.50;;
17943;SDS011;9097;47.028;15.444;2023-08-06T09:22:12;0.52;;;0.52;;
17943;SDS011;9097;47.028;15.444;2023-08-06T09:25:20;0.20;;;0.20;;
17943;SDS011;9097;47.028;15.444;2023-08-06T09:28:24;0.68;;;0.30;;
17943;SDS011;9097;47.028;15.444;2023-08-06T09:31:33;0.43;;;0.40;;
17943;SDS011;9097;47.028;15.444;2023-08-06T09:34:38;0.45;;;0.35;;
17943;SDS011;9097;47.028;15.444;2023-08-06T09:37:41;0.50;;;0.50;;
17943;SDS011;9097;47.028;15.444;2023-08-06T09:40:44;0.52;;;0.40;;
17943;SDS011;9097;47.028;15.444;2023-08-06T09:43:47;0.57;;;0.55;;
17943;SDS011;9097;47.028;15.444;2023-08-06T09:46:52;0.30;;;0.30;;
17943;SDS011;9097;47.028;15.444;2023-08-06T09:49:54;0.22;;;0.22;;
17943;SDS011;9097;47.028;15.444;2023-08-06T09:52:59;0.40;;;0.40;;
17943;SDS011;9097;47.028;15.444;2023-08-06T09:56:01;0.32;;;0.30;;
17943;SDS011;9097;47.028;15.444;2023-08-06T09:59:04;0.38;;;0.38;;
17943;SDS011;9097;47.028;15.444;2023-08-06T10:02:10;0.52;;;0.35;;
17943;SDS011;9097;47.028;15.444;2023-08-06T10:05:14;0.38;;;0.30;;
17943;SDS011;9097;47.028;15.444;2023-08-06T10:08:17;0.63;;;0.47;;
17943;SDS011;9097;47.028;15.444;2023-08-06T10:11:20;0.98;;;0.70;;
17943;SDS011;9097;47.028;15.444;2023-08-06T10:14:24;0.70;;;0.38;;
17943;SDS011;9097;47.028;15.444;2023-08-06T10:17:29;0.57;;;0.28;;
17943;SDS011;9097;47.028;15.444;2023-08-06T10:20:33;0.82;;;0.32;;
17943;SDS011;9097;47.028;15.444;2023-08-06T10:23:36;0.40;;;0.40;;
17943;SDS011;9097;47.028;15.444;2023-08-06T10:26:39;1.45;;;0.32;;
17943;SDS011;9097;47.028;15.444;2023-08-06T10:29:42;0.70;;;0.50;;
17943;SDS011;9097;47.028;15.444;2023-08-06T10:32:49;0.35;;;0.30;;
17943;SDS011;9097;47.028;15.444;2023-08-06T10:35:52;0.45;;;0.45;;
17943;SDS011;9097;47.028;15.444;2023-08-06T10:39:07;0.90;;;0.40;;
17943;SDS011;9097;47.028;15.444;2023-08-06T10:42:19;0.85;;;0.70;;
17943;SDS011;9097;47.028;15.444;2023-08-06T10:45:22;0.75;;;0.50;;
17943;SDS011;9097;47.028;15.444;2023-08-06T10:48:30;0.50;;;0.40;;
17943;SDS011;9097;47.028;15.444;2023-08-06T10:51:33;1.00;;;0.50;;
17943;SDS011;9097;47.028;15.444;2023-08-06T10:54:36;0.35;;;0.35;;
17943;SDS011;9097;47.028;15.444;2023-08-06T10:57:39;0.20;;;0.17;;
17943;SDS011;9097;47.028;15.444;2023-08-06T11:00:42;0.30;;;0.30;;
17943;SDS011;9097;47.028;15.444;2023-08-06T11:03:46;0.55;;;0.43;;
17943;SDS011;9097;47.028;15.444;2023-08-06T11:06:51;0.28;;;0.25;;
17943;SDS011;9097;47.028;15.444;2023-08-06T11:10:00;1.00;;;0.25;;
17943;SDS011;9097;47.028;15.444;2023-08-06T11:13:03;0.20;;;0.20;;
17943;SDS011;9097;47.028;15.444;2023-08-06T11:16:08;0.57;;;0.20;;
17943;SDS011;9097;47.028;15.444;2023-08-06T11:19:12;0.25;;;0.25;;
17943;SDS011;9097;47.028;15.444;2023-08-06T11:22:16;0.10;;;0.10;;
17943;SDS011;9097;47.028;15.444;2023-08-06T11:25:20;0.70;;;0.30;;
17943;SDS011;9097;47.028;15.444;2023-08-06T11:28:23;0.73;;;0.40;;
17943;SDS011;9097;47.028;15.444;2023-08-06T11:31:25;0.30;;;0.30;;
17943;SDS011;9097;47.028;15.444;2023-08-06T11:34:29;0.10;;;0.10;;
17943;SDS011;9097;47.028;15.444;2023-08-06T11:37:32;0.40;;;0.40;;
17943;SDS011;9097;47.028;15.444;2023-08-06T11:40:35;0.55;;;0.22;;
17943;SDS011;9097;47.028;15.444;2023-08-06T11:43:38;0.75;;;0.20;;
17943;SDS011;9097;47.028;15.444;2023-08-06T11:46:50;0.28;;;0.20;;
17943;SDS011;9097;47.028;15.444;2023-08-06T11:49:57;0.13;;;0.13;;
17943;SDS011;9097;47.028;15.444;2023-08-06T11:53:00;0.32;;;0.20;;
17943;SDS011;9097;47.028;15.444;2023-08-06T11:56:03;0.55;;;0.43;;
17943;SDS011;9097;47.028;15.444;2023-08-06T11:59:06;0.90;;;0.20;;
17943;SDS011;9097;47.028;15.444;2023-08-06T12:02:09;0.10;;;0.10;;
17943;SDS011;9097;47.028;15.444;2023-08-06T12:05:13;0.28;;;0.20;;
17943;SDS011;9097;47.028;15.444;2023-08-06T12:08:16;0.73;;;0.17;;
17943;SDS011;9097;47.028;15.444;2023-08-06T12:11:21;0.32;;;0.25;;
17943;SDS011;9097;47.028;15.444;2023-08-06T12:14:23;0.10;;;0.10;;
17943;SDS011;9097;47.028;15.444;2023-08-06T12:17:26;0.22;;;0.17;;
17943;SDS011;9097;47.028;15.444;2023-08-06T12:20:30;0.20;;;0.20;;
17943;SDS011;9097;47.028;15.444;2023-08-06T12:23:32;0.32;;;0.32;;
17943;SDS011;9097;47.028;15.444;2023-08-06T12:26:36;0.30;;;0.30;;
17943;SDS011;9097;47.028;15.444;2023-08-06T12:29:40;0.20;;;0.10;;
17943;SDS011;9097;47.028;15.444;2023-08-06T12:32:43;0.38;;;0.30;;
17943;SDS011;9097;47.028;15.444;2023-08-06T12:35:47;0.22;;;0.22;;
17943;SDS011;9097;47.028;15.444;2023-08-06T12:38:49;0.25;;;0.20;;
17943;SDS011;9097;47.028;15.444;2023-08-06T12:41:52;0.10;;;0.10;;
17943;SDS011;9097;47.028;15.444;2023-08-06T12:44:54;0.40;;;0.20;;
17943;SDS011;9097;47.028;15.444;2023-08-06T12:47:57;0.20;;;0.20;;
17943;SDS011;9097;47.028;15.444;2023-08-06T12:51:01;0.10;;;0.10;;
17943;SDS011;9097;47.028;15.444;2023-08-06T12:54:03;0.43;;;0.10;;
17943;SDS011;9097;47.028;15.444;2023-08-06T12:57:06;0.65;;;0.30;;
17943;SDS011;9097;47.028;15.444;2023-08-06T13:00:09;0.20;;;0.20;;
17943;SDS011;9097;47.028;15.444;2023-08-06T13:03:12;0.20;;;0.20;;
17943;SDS011;9097;47.028;15.444;2023-08-06T13:06:16;0.10;;;0.10;;
17943;SDS011;9097;47.028;15.444;2023-08-06T13:09:18;0.10;;;0.10;;
17943;SDS011;9097;47.028;15.444;2023-08-06T13:12:21;0.10;;;0.10;;
17943;SDS011;9097;47.028;15.444;2023-08-06T13:15:24;0.47;;;0.13;;
17943;SDS011;9097;47.028;15.444;2023-08-06T13:18:27;0.45;;;0.10;;
17943;SDS011;9097;47.028;15.444;2023-08-06T13:21:33;0.47;;;0.20;;
17943;SDS011;9097;47.028;15.444;2023-08-06T13:24:36;0.13;;;0.13;;
17943;SDS011;9097;47.028;15.444;2023-08-06T13:27:38;0.38;;;0.15;;
17943;SDS011;9097;47.028;15.444;2023-08-06T13:30:41;0.13;;;0.13;;
17943;SDS011;9097;47.028;15.444;2023-08-06T13:33:44;0.30;;;0.17;;
17943;SDS011;9097;47.028;15.444;2023-08-06T13:36:50;0.13;;;0.10;;
17943;SDS011;9097;47.028;15.444;2023-08-06T13:39:52;0.17;;;0.17;;
17943;SDS011;9097;47.028;15.444;2023-08-06T13:42:55;0.30;;;0.10;;
17943;SDS011;9097;47.028;15.444;2023-08-06T13:45:57;0.20;;;0.20;;
17943;SDS011;9097;47.028;15.444;2023-08-06T13:49:00;0.20;;;0.10;;
17943;SDS011;9097;47.028;15.444;2023-08-06T13:52:04;1.27;;;0.10;;
17943;SDS011;9097;47.028;15.444;2023-08-06T13:55:07;0.10;;;0.10;;
17943;SDS011;9097;47.028;15.444;2023-08-06T13:58:10;0.45;;;0.22;;
17943;SDS011;9097;47.028;15.444;2023-08-06T14:01:12;0.17;;;0.10;;
17943;SDS011;9097;47.028;15.444;2023-08-06T14:04:15;0.32;;;0.25;;
17943;SDS011;9097;47.028;15.444;2023-08-06T14:07:19;0.30;;;0.30;;
17943;SDS011;9097;47.028;15.444;2023-08-06T14:10:22;0.13;;;0.00;;
17943;SDS011;9097;47.028;15.444;2023-08-06T14:13:24;0.10;;;0.10;;
17943;SDS011;9097;47.028;15.444;2023-08-06T14:16:27;0.00;;;0.00;;
17943;SDS011;9097;47.028;15.444;2023-08-06T14:19:29;0.10;;;0.10;;
17943;SDS011;9097;47.028;15.444;2023-08-06T14:22:33;0.35;;;0.15;;
17943;SDS011;9097;47.028;15.444;2023-08-06T14:25:36;0.28;;;0.22;;
17943;SDS011;9097;47.028;15.444;2023-08-06T14:28:38;0.75;;;0.28;;
17943;SDS011;9097;47.028;15.444;2023-08-06T14:31:41;0.40;;;0.30;;
17943;SDS011;9097;47.028;15.444;2023-08-06T14:34:44;0.20;;;0.17;;
17943;SDS011;9097;47.028;15.444;2023-08-06T14:37:48;0.30;;;0.30;;
17943;SDS011;9097;47.028;15.444;2023-08-06T14:40:50;0.10;;;0.10;;
17943;SDS011;9097;47.028;15.444;2023-08-06T14:43:53;0.55;;;0.28;;
17943;SDS011;9097;47.028;15.444;2023-08-06T14:46:55;0.10;;;0.10;;
17943;SDS011;9097;47.028;15.444;2023-08-06T14:49:58;0.10;;;0.10;;
17943;SDS011;9097;47.028;15.444;2023-08-06T14:53:02;0.32;;;0.10;;
17943;SDS011;9097;47.028;15.444;2023-08-06T14:56:06;0.10;;;0.10;;
17943;SDS011;9097;47.028;15.444;2023-08-06T14:59:09;0.30;;;0.10;;
17943;SDS011;9097;47.028;15.444;2023-08-06T15:02:11;0.08;;;0.03;;
17943;SDS011;9097;47.028;15.444;2023-08-06T15:05:14;0.22;;;0.13;;
17943;SDS011;9097;47.028;15.444;2023-08-06T15:08:18;0.17;;;0.17;;
17943;SDS011;9097;47.028;15.444;2023-08-06T15:11:22;0.20;;;0.20;;
17943;SDS011;9097;47.028;15.444;2023-08-06T15:14:24;0.10;;;0.10;;
17943;SDS011;9097;47.028;15.444;2023-08-06T15:17:26;0.08;;;0.08;;
17943;SDS011;9097;47.028;15.444;2023-08-06T15:20:30;0.10;;;0.10;;
17943;SDS011;9097;47.028;15.444;2023-08-06T15:23:34;0.10;;;0.10;;
17943;SDS011;9097;47.028;15.444;2023-08-06T15:26:36;0.22;;;0.15;;
17943;SDS011;9097;47.028;15.444;2023-08-06T15:29:39;0.25;;;0.20;;
17943;SDS011;9097;47.028;15.444;2023-08-06T15:32:42;0.00;;;0.00;;
17943;SDS011;9097;47.028;15.444;2023-08-06T15:35:46;0.10;;;0.10;;
17943;SDS011;9097;47.028;15.444;2023-08-06T15:38:51;0.00;;;0.00;;
17943;SDS011;9097;47.028;15.444;2023-08-06T15:41:53;0.03;;;0.00;;
17943;SDS011;9097;47.028;15.444;2023-08-06T15:44:56;0.20;;;0.20;;
17943;SDS011;9097;47.028;15.444;2023-08-06T15:47:59;0.00;;;0.00;;
17943;SDS011;9097;47.028;15.444;2023-08-06T15:51:02;0.22;;;0.00;;
17943;SDS011;9097;47.028;15.444;2023-08-06T15:54:06;0.32;;;0.05;;
17943;SDS011;9097;47.028;15.444;2023-08-06T15:57:08;0.10;;;0.10;;
17943;SDS011;9097;47.028;15.444;2023-08-06T16:00:12;0.00;;;0.00;;
17943;SDS011;9097;47.028;15.444;2023-08-06T16:03:16;0.20;;;0.20;;
17943;SDS011;9097;47.028;15.444;2023-08-06T16:06:18;0.30;;;0.00;;
17943;SDS011;9097;47.028;15.444;2023-08-06T16:09:22;0.00;;;0.00;;
17943;SDS011;9097;47.028;15.444;2023-08-06T16:12:25;0.00;;;0.00;;
17943;SDS011;9097;47.028;15.444;2023-08-06T16:15:27;0.00;;;0.00;;
17943;SDS011;9097;47.028;15.444;2023-08-06T16:18:31;0.00;;;0.00;;
17943;SDS011;9097;47.028;15.444;2023-08-06T16:21:33;0.00;;;0.00;;
17943;SDS011;9097;47.028;15.444;2023-08-06T16:24:37;0.35;;;0.10;;
17943;SDS011;9097;47.028;15.444;2023-08-06T16:27:39;0.00;;;0.00;;
17943;SDS011;9097;47.028;15.444;2023-08-06T16:30:43;0.30;;;0.20;;
17943;SDS011;9097;47.028;15.444;2023-08-06T16:33:46;0.95;;;0.30;;
17943;SDS011;9097;47.028;15.444;2023-08-06T16:36:49;0.10;;;0.10;;
17943;SDS011;9097;47.028;15.444;2023-08-06T16:39:53;0.20;;;0.15;;
17943;SDS011;9097;47.028;15.444;2023-08-06T16:42:55;0.10;;;0.10;;
17943;SDS011;9097;47.028;15.444;2023-08-06T16:45:58;0.00;;;0.00;;
17943;SDS011;9097;47.028;15.444;2023-08-06T16:49:01;0.00;;;0.00;;
17943;SDS011;9097;47.028;15.444;2023-08-06T16:52:04;0.00;;;0.00;;
17943;SDS011;9097;47.028;15.444;2023-08-06T16:55:08;0.08;;;0.08;;
17943;SDS011;9097;47.028;15.444;2023-08-06T16:58:11;0.10;;;0.10;;
17943;SDS011;9097;47.028;15.444;2023-08-06T17:01:13;0.10;;;0.10;;
17943;SDS011;9097;47.028;15.444;2023-08-06T17:04:16;0.00;;;0.00;;
17943;SDS011;9097;47.028;15.444;2023-08-06T17:07:19;0.93;;;0.25;;
17943;SDS011;9097;47.028;15.444;2023-08-06T17:10:22;0.05;;;0.05;;
17943;SDS011;9097;47.028;15.444;2023-08-06T17:13:25;0.10;;;0.10;;
17943;SDS011;9097;47.028;15.444;2023-08-06T17:16:27;0.10;;;0.10;;
17943;SDS011;9097;47.028;15.444;2023-08-06T17:19:30;0.20;;;0.10;;
17943;SDS011;9097;47.028;15.444;2023-08-06T17:22:33;0.00;;;0.00;;
17943;SDS011;9097;47.028;15.444;2023-08-06T17:25:37;0.93;;;0.50;;
17943;SDS011;9097;47.028;15.444;2023-08-06T17:28:42;0.20;;;0.10;;
17943;SDS011;9097;47.028;15.444;2023-08-06T17:31:44;0.10;;;0.10;;
17943;SDS011;9097;47.028;15.444;2023-08-06T17:34:47;0.10;;;0.10;;
17943;SDS011;9097;47.028;15.444;2023-08-06T17:37:49;0.10;;;0.10;;
17943;SDS011;9097;47.028;15.444;2023-08-06T17:40:55;0.10;;;0.03;;
17943;SDS011;9097;47.028;15.444;2023-08-06T17:44:00;0.68;;;0.40;;
17943;SDS011;9097;47.028;15.444;2023-08-06T17:47:02;1.05;;;0.60;;
17943;SDS011;9097;47.028;15.444;2023-08-06T17:50:05;0.20;;;0.10;;
17943;SDS011;9097;47.028;15.444;2023-08-06T17:53:08;0.45;;;0.30;;
17943;SDS011;9097;47.028;15.444;2023-08-06T17:56:12;0.00;;;0.00;;
17943;SDS011;9097;47.028;15.444;2023-08-06T17:59:16;0.15;;;0.15;;
17943;SDS011;9097;47.028;15.444;2023-08-06T18:02:19;0.10;;;0.00;;
17943;SDS011;9097;47.028;15.444;2023-08-06T18:05:22;0.00;;;0.00;;
17943;SDS011;9097;47.028;15.444;2023-08-06T18:08:25;0.00;;;0.00;;
17943;SDS011;9097;47.028;15.444;2023-08-06T18:11:29;0.50;;;0.20;;
17943;SDS011;9097;47.028;15.444;2023-08-06T18:14:32;0.10;;;0.10;;
17943;SDS011;9097;47.028;15.444;2023-08-06T18:17:34;0.05;;;0.00;;
17943;SDS011;9097;47.028;15.444;2023-08-06T18:20:37;0.10;;;0.10;;
17943;SDS011;9097;47.028;15.444;2023-08-06T18:23:40;0.35;;;0.08;;